sensor_id;sensor_type;location;lat;lon;timestamp;P1;durP1;ratioP1;P2;durP2;ratioP2
5135;SDS011;2586;48.710;9.202;2022-07-29T00:01:21;6.83;;;5.50;;
5135;SDS011;2586;48.710;9.202;2022-07-29T00:03:46;5.93;;;5.43;;
5135;SDS011;2586;48.710;9.202;2022-07-29T00:06:13;6.50;;;5.83;;
5135;SDS011;2586;48.710;9.202;2022-07-29T00:08:39;9.27;;;7.03;;
5135;SDS011;2586;48.710;9.202;2022-07-29T00:11:04;7.43;;;6.60;;
5135;SDS011;2586;48.710;9.202;2022-07-29T00:13:30;7.50;;;6.37;;
5135;SDS011;2586;48.710;9.202;2022-07-29T00:15:56;10.90;;;6.90;;
5135;SDS011;2586;48.710;9.202;2022-07-29T00:18:21;8.47;;;6.33;;
5135;SDS011;2586;48.710;9.202;2022-07-29T00:20:47;7.13;;;6.27;;
5135;SDS011;2586;48.710;9.202;2022-07-29T00:23:12;7.70;;;6.90;;
5135;SDS011;2586;48.710;9.202;2022-07-29T00:25:38;6.37;;;5.57;;
5135;SDS011;2586;48.710;9.202;2022-07-29T00:28:04;6.80;;;6.07;;
5135;SDS011;2586;48.710;9.202;2022-07-29T00:30:29;7.97;;;6.80;;
5135;SDS011;2586;48.710;9.202;2022-07-29T00:32:55;9.53;;;6.53;;
5135;SDS011;2586;48.710;9.202;2022-07-29T00:35:20;11.30;;;6.70;;
5135;SDS011;2586;48.710;9.202;2022-07-29T00:38:04;8.77;;;5.80;;
5135;SDS011;2586;48.710;9.202;2022-07-29T00:40:30;12.47;;;5.40;;
5135;SDS011;2586;48.710;9.202;2022-07-29T00:42:58;6.07;;;5.40;;
5135;SDS011;2586;48.710;9.202;2022-07-29T00:45:24;6.70;;;6.00;;
5135;SDS011;2586;48.710;9.202;2022-07-29T00:47:50;5.83;;;5.33;;
5135;SDS011;2586;48.710;9.202;2022-07-29T00:50:15;5.90;;;4.83;;
5135;SDS011;2586;48.710;9.202;2022-07-29T00:52:42;6.13;;;4.77;;
5135;SDS011;2586;48.710;9.202;2022-07-29T00:55:11;5.53;;;4.47;;
5135;SDS011;2586;48.710;9.202;2022-07-29T00:57:40;4.87;;;4.57;;
5135;SDS011;2586;48.710;9.202;2022-07-29T01:00:07;5.53;;;4.90;;
5135;SDS011;2586;48.710;9.202;2022-07-29T01:02:38;7.13;;;4.80;;
5135;SDS011;2586;48.710;9.202;2022-07-29T01:05:04;17.13;;;5.63;;
5135;SDS011;2586;48.710;9.202;2022-07-29T01:07:31;5.77;;;4.60;;
5135;SDS011;2586;48.710;9.202;2022-07-29T01:10:02;6.47;;;5.83;;
5135;SDS011;2586;48.710;9.202;2022-07-29T01:12:30;5.23;;;4.73;;
5135;SDS011;2586;48.710;9.202;2022-07-29T01:14:58;14.87;;;5.67;;
5135;SDS011;2586;48.710;9.202;2022-07-29T01:29:02;4.50;;;4.10;;
5135;SDS011;2586;48.710;9.202;2022-07-29T01:31:33;4.80;;;4.40;;
5135;SDS011;2586;48.710;9.202;2022-07-29T01:34:23;7.70;;;4.50;;
5135;SDS011;2586;48.710;9.202;2022-07-29T01:37:38;5.70;;;4.60;;
5135;SDS011;2586;48.710;9.202;2022-07-29T01:39:52;3.97;;;3.63;;
5135;SDS011;2586;48.710;9.202;2022-07-29T01:42:30;4.90;;;4.50;;
5135;SDS011;2586;48.710;9.202;2022-07-29T01:47:43;5.40;;;4.97;;
5135;SDS011;2586;48.710;9.202;2022-07-29T01:50:23;4.67;;;4.07;;
5135;SDS011;2586;48.710;9.202;2022-07-29T01:53:01;8.73;;;6.03;;
5135;SDS011;2586;48.710;9.202;2022-07-29T01:55:31;9.63;;;4.87;;
5135;SDS011;2586;48.710;9.202;2022-07-29T01:58:00;5.07;;;4.40;;
5135;SDS011;2586;48.710;9.202;2022-07-29T02:00:27;6.90;;;5.00;;
5135;SDS011;2586;48.710;9.202;2022-07-29T02:02:56;8.60;;;4.77;;
5135;SDS011;2586;48.710;9.202;2022-07-29T02:05:24;8.50;;;4.53;;
5135;SDS011;2586;48.710;9.202;2022-07-29T02:07:52;8.33;;;5.40;;
5135;SDS011;2586;48.710;9.202;2022-07-29T02:10:21;4.70;;;4.20;;
5135;SDS011;2586;48.710;9.202;2022-07-29T02:12:49;5.00;;;4.50;;
5135;SDS011;2586;48.710;9.202;2022-07-29T02:15:16;4.20;;;3.80;;
5135;SDS011;2586;48.710;9.202;2022-07-29T02:17:48;4.50;;;4.10;;
5135;SDS011;2586;48.710;9.202;2022-07-29T02:20:18;5.60;;;4.67;;
5135;SDS011;2586;48.710;9.202;2022-07-29T02:22:44;7.53;;;3.93;;
5135;SDS011;2586;48.710;9.202;2022-07-29T02:25:12;4.60;;;3.87;;
5135;SDS011;2586;48.710;9.202;2022-07-29T02:27:38;5.57;;;4.30;;
5135;SDS011;2586;48.710;9.202;2022-07-29T02:30:06;4.07;;;3.77;;
5135;SDS011;2586;48.710;9.202;2022-07-29T02:32:34;5.00;;;4.03;;
5135;SDS011;2586;48.710;9.202;2022-07-29T02:35:02;4.53;;;4.23;;
5135;SDS011;2586;48.710;9.202;2022-07-29T02:37:29;5.40;;;4.77;;
5135;SDS011;2586;48.710;9.202;2022-07-29T02:39:56;9.23;;;4.40;;
5135;SDS011;2586;48.710;9.202;2022-07-29T02:42:23;8.73;;;4.60;;
5135;SDS011;2586;48.710;9.202;2022-07-29T02:44:51;6.63;;;4.10;;
5135;SDS011;2586;48.710;9.202;2022-07-29T02:47:24;5.30;;;4.20;;
5135;SDS011;2586;48.710;9.202;2022-07-29T02:52:34;5.83;;;4.90;;
5135;SDS011;2586;48.710;9.202;2022-07-29T02:57:44;5.23;;;4.03;;
5135;SDS011;2586;48.710;9.202;2022-07-29T03:00:25;5.20;;;4.80;;
5135;SDS011;2586;48.710;9.202;2022-07-29T03:02:54;4.93;;;4.27;;
5135;SDS011;2586;48.710;9.202;2022-07-29T03:05:21;6.00;;;5.17;;
5135;SDS011;2586;48.710;9.202;2022-07-29T03:08:04;4.87;;;4.40;;
5135;SDS011;2586;48.710;9.202;2022-07-29T03:10:31;5.27;;;4.67;;
5135;SDS011;2586;48.710;9.202;2022-07-29T03:12:58;4.93;;;4.53;;
5135;SDS011;2586;48.710;9.202;2022-07-29T03:15:24;4.43;;;4.10;;
5135;SDS011;2586;48.710;9.202;2022-07-29T03:17:51;4.30;;;4.00;;
5135;SDS011;2586;48.710;9.202;2022-07-29T03:20:17;8.20;;;5.00;;
5135;SDS011;2586;48.710;9.202;2022-07-29T03:22:44;5.00;;;4.60;;
5135;SDS011;2586;48.710;9.202;2022-07-29T03:25:16;5.40;;;4.90;;
5135;SDS011;2586;48.710;9.202;2022-07-29T03:27:43;4.00;;;3.70;;
5135;SDS011;2586;48.710;9.202;2022-07-29T03:30:09;4.60;;;4.20;;
5135;SDS011;2586;48.710;9.202;2022-07-29T03:32:39;5.10;;;4.43;;
5135;SDS011;2586;48.710;9.202;2022-07-29T03:35:06;4.93;;;4.43;;
5135;SDS011;2586;48.710;9.202;2022-07-29T03:37:32;13.10;;;5.67;;
5135;SDS011;2586;48.710;9.202;2022-07-29T03:39:58;8.10;;;4.70;;
5135;SDS011;2586;48.710;9.202;2022-07-29T03:42:27;13.53;;;5.73;;
5135;SDS011;2586;48.710;9.202;2022-07-29T03:44:56;4.93;;;4.43;;
5135;SDS011;2586;48.710;9.202;2022-07-29T03:47:25;6.10;;;4.70;;
5135;SDS011;2586;48.710;9.202;2022-07-29T03:49:56;6.17;;;4.80;;
5135;SDS011;2586;48.710;9.202;2022-07-29T03:52:27;6.77;;;5.27;;
5135;SDS011;2586;48.710;9.202;2022-07-29T03:54:53;4.70;;;4.30;;
5135;SDS011;2586;48.710;9.202;2022-07-29T03:57:19;11.83;;;6.20;;
5135;SDS011;2586;48.710;9.202;2022-07-29T03:59:48;4.57;;;4.17;;
5135;SDS011;2586;48.710;9.202;2022-07-29T04:02:15;6.90;;;4.73;;
5135;SDS011;2586;48.710;9.202;2022-07-29T04:04:41;6.00;;;5.27;;
5135;SDS011;2586;48.710;9.202;2022-07-29T04:07:07;8.83;;;4.43;;
5135;SDS011;2586;48.710;9.202;2022-07-29T04:09:37;9.47;;;4.80;;
5135;SDS011;2586;48.710;9.202;2022-07-29T04:12:02;4.70;;;4.30;;
5135;SDS011;2586;48.710;9.202;2022-07-29T04:14:29;5.43;;;4.40;;
5135;SDS011;2586;48.710;9.202;2022-07-29T04:16:56;4.80;;;4.30;;
5135;SDS011;2586;48.710;9.202;2022-07-29T04:19:21;7.97;;;4.43;;
5135;SDS011;2586;48.710;9.202;2022-07-29T04:21:47;8.33;;;4.03;;
5135;SDS011;2586;48.710;9.202;2022-07-29T04:24:13;3.80;;;3.50;;
5135;SDS011;2586;48.710;9.202;2022-07-29T04:26:38;5.63;;;4.37;;
5135;SDS011;2586;48.710;9.202;2022-07-29T04:29:04;8.00;;;4.30;;
5135;SDS011;2586;48.710;9.202;2022-07-29T04:31:30;5.83;;;4.43;;
5135;SDS011;2586;48.710;9.202;2022-07-29T04:33:55;4.30;;;3.97;;
5135;SDS011;2586;48.710;9.202;2022-07-29T04:36:23;5.00;;;4.60;;
5135;SDS011;2586;48.710;9.202;2022-07-29T04:38:49;3.50;;;3.30;;
5135;SDS011;2586;48.710;9.202;2022-07-29T04:41:14;4.10;;;3.80;;
5135;SDS011;2586;48.710;9.202;2022-07-29T04:43:40;4.93;;;3.80;;
5135;SDS011;2586;48.710;9.202;2022-07-29T04:46:06;4.20;;;4.00;;
5135;SDS011;2586;48.710;9.202;2022-07-29T04:48:32;4.73;;;4.00;;
5135;SDS011;2586;48.710;9.202;2022-07-29T04:50:58;4.33;;;3.90;;
5135;SDS011;2586;48.710;9.202;2022-07-29T04:53:23;4.63;;;4.20;;
5135;SDS011;2586;48.710;9.202;2022-07-29T04:55:49;5.20;;;4.10;;
5135;SDS011;2586;48.710;9.202;2022-07-29T04:58:15;4.90;;;4.43;;
5135;SDS011;2586;48.710;9.202;2022-07-29T05:00:40;7.87;;;4.50;;
5135;SDS011;2586;48.710;9.202;2022-07-29T05:03:06;3.73;;;3.13;;
5135;SDS011;2586;48.710;9.202;2022-07-29T05:05:31;5.03;;;3.53;;
5135;SDS011;2586;48.710;9.202;2022-07-29T05:07:57;3.93;;;3.73;;
5135;SDS011;2586;48.710;9.202;2022-07-29T05:10:23;5.60;;;4.27;;
5135;SDS011;2586;48.710;9.202;2022-07-29T05:12:48;3.10;;;2.90;;
5135;SDS011;2586;48.710;9.202;2022-07-29T05:15:14;3.53;;;3.03;;
5135;SDS011;2586;48.710;9.202;2022-07-29T05:17:40;2.97;;;2.77;;
5135;SDS011;2586;48.710;9.202;2022-07-29T05:20:06;4.00;;;3.40;;
5135;SDS011;2586;48.710;9.202;2022-07-29T05:22:32;13.00;;;3.30;;
5135;SDS011;2586;48.710;9.202;2022-07-29T05:24:57;5.20;;;3.50;;
5135;SDS011;2586;48.710;9.202;2022-07-29T05:27:23;3.80;;;3.50;;
5135;SDS011;2586;48.710;9.202;2022-07-29T05:29:49;6.27;;;2.70;;
5135;SDS011;2586;48.710;9.202;2022-07-29T05:32:14;10.83;;;3.17;;
5135;SDS011;2586;48.710;9.202;2022-07-29T05:34:40;4.20;;;2.70;;
5135;SDS011;2586;48.710;9.202;2022-07-29T05:37:07;3.40;;;3.10;;
5135;SDS011;2586;48.710;9.202;2022-07-29T05:39:34;6.77;;;2.63;;
5135;SDS011;2586;48.710;9.202;2022-07-29T05:41:59;8.60;;;2.47;;
5135;SDS011;2586;48.710;9.202;2022-07-29T05:44:25;8.80;;;2.50;;
5135;SDS011;2586;48.710;9.202;2022-07-29T05:46:50;3.07;;;2.13;;
5135;SDS011;2586;48.710;9.202;2022-07-29T05:49:16;11.90;;;3.17;;
5135;SDS011;2586;48.710;9.202;2022-07-29T05:51:42;5.17;;;2.23;;
5135;SDS011;2586;48.710;9.202;2022-07-29T05:54:07;4.67;;;2.27;;
5135;SDS011;2586;48.710;9.202;2022-07-29T05:56:35;12.40;;;2.10;;
5135;SDS011;2586;48.710;9.202;2022-07-29T05:59:01;3.73;;;2.60;;
5135;SDS011;2586;48.710;9.202;2022-07-29T06:01:27;4.50;;;2.00;;
5135;SDS011;2586;48.710;9.202;2022-07-29T06:03:52;2.13;;;2.00;;
5135;SDS011;2586;48.710;9.202;2022-07-29T06:06:18;6.33;;;2.30;;
5135;SDS011;2586;48.710;9.202;2022-07-29T06:08:43;2.30;;;1.70;;
5135;SDS011;2586;48.710;9.202;2022-07-29T06:11:09;1.80;;;1.70;;
5135;SDS011;2586;48.710;9.202;2022-07-29T06:13:35;3.00;;;1.57;;
5135;SDS011;2586;48.710;9.202;2022-07-29T06:16:00;3.40;;;1.90;;
5135;SDS011;2586;48.710;9.202;2022-07-29T06:18:26;5.83;;;1.50;;
5135;SDS011;2586;48.710;9.202;2022-07-29T06:20:52;5.17;;;1.80;;
5135;SDS011;2586;48.710;9.202;2022-07-29T06:23:18;1.80;;;1.23;;
5135;SDS011;2586;48.710;9.202;2022-07-29T06:25:44;3.47;;;1.70;;
5135;SDS011;2586;48.710;9.202;2022-07-29T06:28:10;11.63;;;2.10;;
5135;SDS011;2586;48.710;9.202;2022-07-29T06:30:36;5.87;;;1.80;;
5135;SDS011;2586;48.710;9.202;2022-07-29T06:33:02;4.60;;;2.10;;
5135;SDS011;2586;48.710;9.202;2022-07-29T06:35:28;13.13;;;2.27;;
5135;SDS011;2586;48.710;9.202;2022-07-29T06:37:54;5.20;;;3.13;;
5135;SDS011;2586;48.710;9.202;2022-07-29T06:40:20;10.87;;;2.10;;
5135;SDS011;2586;48.710;9.202;2022-07-29T06:43:04;14.50;;;2.37;;
5135;SDS011;2586;48.710;9.202;2022-07-29T06:45:30;2.53;;;2.07;;
5135;SDS011;2586;48.710;9.202;2022-07-29T06:47:58;12.57;;;2.77;;
5135;SDS011;2586;48.710;9.202;2022-07-29T06:50:24;2.40;;;2.20;;
5135;SDS011;2586;48.710;9.202;2022-07-29T06:52:50;4.70;;;2.00;;
5135;SDS011;2586;48.710;9.202;2022-07-29T06:55:15;3.17;;;2.20;;
5135;SDS011;2586;48.710;9.202;2022-07-29T06:57:41;3.10;;;1.83;;
5135;SDS011;2586;48.710;9.202;2022-07-29T07:00:07;6.00;;;1.60;;
5135;SDS011;2586;48.710;9.202;2022-07-29T07:02:33;8.70;;;2.57;;
5135;SDS011;2586;48.710;9.202;2022-07-29T07:04:58;2.70;;;2.10;;
5135;SDS011;2586;48.710;9.202;2022-07-29T07:07:24;7.30;;;2.63;;
5135;SDS011;2586;48.710;9.202;2022-07-29T07:09:50;14.93;;;2.87;;
5135;SDS011;2586;48.710;9.202;2022-07-29T07:12:16;5.43;;;2.50;;
5135;SDS011;2586;48.710;9.202;2022-07-29T07:14:41;6.43;;;2.77;;
5135;SDS011;2586;48.710;9.202;2022-07-29T07:17:07;2.53;;;1.93;;
5135;SDS011;2586;48.710;9.202;2022-07-29T07:19:33;5.57;;;2.63;;
5135;SDS011;2586;48.710;9.202;2022-07-29T07:21:58;5.13;;;2.77;;
5135;SDS011;2586;48.710;9.202;2022-07-29T07:24:24;4.10;;;2.43;;
5135;SDS011;2586;48.710;9.202;2022-07-29T07:26:50;6.00;;;2.53;;
5135;SDS011;2586;48.710;9.202;2022-07-29T07:29:16;14.40;;;3.43;;
5135;SDS011;2586;48.710;9.202;2022-07-29T07:31:41;6.43;;;3.07;;
5135;SDS011;2586;48.710;9.202;2022-07-29T07:34:07;4.37;;;2.97;;
5135;SDS011;2586;48.710;9.202;2022-07-29T07:36:33;12.43;;;2.80;;
5135;SDS011;2586;48.710;9.202;2022-07-29T07:38:58;3.60;;;3.30;;
5135;SDS011;2586;48.710;9.202;2022-07-29T07:41:24;3.87;;;3.47;;
5135;SDS011;2586;48.710;9.202;2022-07-29T07:43:50;8.33;;;2.67;;
5135;SDS011;2586;48.710;9.202;2022-07-29T07:46:15;4.00;;;2.73;;
5135;SDS011;2586;48.710;9.202;2022-07-29T07:48:41;4.17;;;3.77;;
5135;SDS011;2586;48.710;9.202;2022-07-29T07:51:07;4.20;;;3.50;;
5135;SDS011;2586;48.710;9.202;2022-07-29T07:53:32;3.73;;;3.40;;
5135;SDS011;2586;48.710;9.202;2022-07-29T07:55:58;5.17;;;3.27;;
5135;SDS011;2586;48.710;9.202;2022-07-29T07:58:24;8.33;;;3.17;;
5135;SDS011;2586;48.710;9.202;2022-07-29T08:00:50;4.73;;;3.20;;
5135;SDS011;2586;48.710;9.202;2022-07-29T08:03:16;7.87;;;3.70;;
5135;SDS011;2586;48.710;9.202;2022-07-29T08:05:41;8.60;;;3.70;;
5135;SDS011;2586;48.710;9.202;2022-07-29T08:08:07;6.87;;;3.53;;
5135;SDS011;2586;48.710;9.202;2022-07-29T08:10:32;6.43;;;3.20;;
5135;SDS011;2586;48.710;9.202;2022-07-29T08:13:17;8.77;;;3.30;;
5135;SDS011;2586;48.710;9.202;2022-07-29T08:15:44;10.07;;;3.40;;
5135;SDS011;2586;48.710;9.202;2022-07-29T08:18:11;4.60;;;2.90;;
5135;SDS011;2586;48.710;9.202;2022-07-29T08:20:38;11.67;;;3.90;;
5135;SDS011;2586;48.710;9.202;2022-07-29T08:23:06;6.90;;;3.40;;
5135;SDS011;2586;48.710;9.202;2022-07-29T08:25:34;8.10;;;3.20;;
5135;SDS011;2586;48.710;9.202;2022-07-29T08:28:01;6.27;;;4.10;;
5135;SDS011;2586;48.710;9.202;2022-07-29T08:30:27;5.53;;;3.20;;
5135;SDS011;2586;48.710;9.202;2022-07-29T08:32:53;5.60;;;3.23;;
5135;SDS011;2586;48.710;9.202;2022-07-29T08:35:19;11.40;;;4.20;;
5135;SDS011;2586;48.710;9.202;2022-07-29T08:37:45;5.23;;;2.90;;
5135;SDS011;2586;48.710;9.202;2022-07-29T08:40:11;7.30;;;3.50;;
5135;SDS011;2586;48.710;9.202;2022-07-29T08:42:37;8.53;;;4.00;;
5135;SDS011;2586;48.710;9.202;2022-07-29T08:45:03;11.17;;;4.10;;
5135;SDS011;2586;48.710;9.202;2022-07-29T08:47:29;6.87;;;3.17;;
5135;SDS011;2586;48.710;9.202;2022-07-29T08:49:55;5.67;;;3.30;;
5135;SDS011;2586;48.710;9.202;2022-07-29T08:52:21;4.90;;;3.47;;
5135;SDS011;2586;48.710;9.202;2022-07-29T08:54:49;4.03;;;3.43;;
5135;SDS011;2586;48.710;9.202;2022-07-29T08:57:17;3.27;;;3.00;;
5135;SDS011;2586;48.710;9.202;2022-07-29T08:59:43;6.63;;;3.10;;
5135;SDS011;2586;48.710;9.202;2022-07-29T09:02:17;4.77;;;4.37;;
5135;SDS011;2586;48.710;9.202;2022-07-29T09:04:44;5.37;;;3.43;;
5135;SDS011;2586;48.710;9.202;2022-07-29T09:07:10;3.53;;;3.23;;
5135;SDS011;2586;48.710;9.202;2022-07-29T09:09:40;7.00;;;3.40;;
5135;SDS011;2586;48.710;9.202;2022-07-29T09:12:07;7.93;;;4.10;;
5135;SDS011;2586;48.710;9.202;2022-07-29T09:14:36;14.57;;;4.07;;
5135;SDS011;2586;48.710;9.202;2022-07-29T09:17:02;4.83;;;3.13;;
5135;SDS011;2586;48.710;9.202;2022-07-29T09:19:29;7.60;;;3.10;;
5135;SDS011;2586;48.710;9.202;2022-07-29T09:21:56;10.73;;;4.17;;
5135;SDS011;2586;48.710;9.202;2022-07-29T09:26:59;8.03;;;4.30;;
5135;SDS011;2586;48.710;9.202;2022-07-29T09:29:24;5.57;;;3.50;;
5135;SDS011;2586;48.710;9.202;2022-07-29T09:31:53;7.03;;;3.90;;
5135;SDS011;2586;48.710;9.202;2022-07-29T09:34:26;22.77;;;4.07;;
5135;SDS011;2586;48.710;9.202;2022-07-29T09:36:56;3.93;;;3.40;;
5135;SDS011;2586;48.710;9.202;2022-07-29T09:39:29;4.17;;;3.73;;
5135;SDS011;2586;48.710;9.202;2022-07-29T09:41:57;5.07;;;3.50;;
5135;SDS011;2586;48.710;9.202;2022-07-29T09:44:24;11.63;;;3.97;;
5135;SDS011;2586;48.710;9.202;2022-07-29T09:47:03;4.97;;;3.60;;
5135;SDS011;2586;48.710;9.202;2022-07-29T09:49:33;8.90;;;3.40;;
5135;SDS011;2586;48.710;9.202;2022-07-29T09:52:00;11.93;;;3.67;;
5135;SDS011;2586;48.710;9.202;2022-07-29T09:54:29;3.70;;;3.40;;
5135;SDS011;2586;48.710;9.202;2022-07-29T09:56:59;4.83;;;3.40;;
5135;SDS011;2586;48.710;9.202;2022-07-29T09:59:24;4.17;;;3.30;;
5135;SDS011;2586;48.710;9.202;2022-07-29T10:01:51;4.43;;;3.73;;
5135;SDS011;2586;48.710;9.202;2022-07-29T10:04:17;5.27;;;3.10;;
5135;SDS011;2586;48.710;9.202;2022-07-29T10:07:00;8.80;;;3.30;;
5135;SDS011;2586;48.710;9.202;2022-07-29T10:09:26;3.53;;;3.23;;
5135;SDS011;2586;48.710;9.202;2022-07-29T10:12:07;8.33;;;4.00;;
5135;SDS011;2586;48.710;9.202;2022-07-29T10:14:38;20.10;;;3.33;;
5135;SDS011;2586;48.710;9.202;2022-07-29T10:17:06;4.30;;;3.27;;
5135;SDS011;2586;48.710;9.202;2022-07-29T10:19:32;6.20;;;4.47;;
5135;SDS011;2586;48.710;9.202;2022-07-29T10:22:00;6.70;;;3.33;;
5135;SDS011;2586;48.710;9.202;2022-07-29T10:24:28;5.77;;;3.10;;
5135;SDS011;2586;48.710;9.202;2022-07-29T10:26:55;3.50;;;3.00;;
5135;SDS011;2586;48.710;9.202;2022-07-29T10:29:22;9.77;;;3.73;;
5135;SDS011;2586;48.710;9.202;2022-07-29T10:34:36;8.23;;;3.90;;
5135;SDS011;2586;48.710;9.202;2022-07-29T10:37:52;6.53;;;3.60;;
5135;SDS011;2586;48.710;9.202;2022-07-29T10:43:29;4.60;;;3.50;;
5135;SDS011;2586;48.710;9.202;2022-07-29T10:46:02;3.57;;;3.27;;
5135;SDS011;2586;48.710;9.202;2022-07-29T10:48:29;8.30;;;3.80;;
5135;SDS011;2586;48.710;9.202;2022-07-29T10:50:59;13.17;;;3.40;;
5135;SDS011;2586;48.710;9.202;2022-07-29T10:56:35;14.20;;;3.90;;
5135;SDS011;2586;48.710;9.202;2022-07-29T11:01:51;3.73;;;3.47;;
5135;SDS011;2586;48.710;9.202;2022-07-29T11:07:08;4.43;;;4.03;;
5135;SDS011;2586;48.710;9.202;2022-07-29T11:09:34;6.93;;;4.20;;
5135;SDS011;2586;48.710;9.202;2022-07-29T11:12:00;2.87;;;2.67;;
5135;SDS011;2586;48.710;9.202;2022-07-29T11:17:22;29.53;;;6.50;;
5135;SDS011;2586;48.710;9.202;2022-07-29T11:19:48;21.70;;;6.63;;
5135;SDS011;2586;48.710;9.202;2022-07-29T11:22:31;25.33;;;6.03;;
5135;SDS011;2586;48.710;9.202;2022-07-29T11:25:17;22.20;;;5.30;;
5135;SDS011;2586;48.710;9.202;2022-07-29T11:27:44;10.73;;;5.43;;
5135;SDS011;2586;48.710;9.202;2022-07-29T11:30:10;4.10;;;3.73;;
5135;SDS011;2586;48.710;9.202;2022-07-29T11:32:37;5.47;;;3.13;;
5135;SDS011;2586;48.710;9.202;2022-07-29T11:35:10;3.90;;;3.30;;
5135;SDS011;2586;48.710;9.202;2022-07-29T11:37:45;3.10;;;2.80;;
5135;SDS011;2586;48.710;9.202;2022-07-29T11:40:12;12.77;;;2.90;;
5135;SDS011;2586;48.710;9.202;2022-07-29T11:42:40;9.93;;;3.43;;
5135;SDS011;2586;48.710;9.202;2022-07-29T11:47:47;10.00;;;2.57;;
5135;SDS011;2586;48.710;9.202;2022-07-29T11:50:51;8.30;;;2.30;;
5135;SDS011;2586;48.710;9.202;2022-07-29T11:53:10;4.57;;;2.63;;
5135;SDS011;2586;48.710;9.202;2022-07-29T11:55:37;3.53;;;2.30;;
5135;SDS011;2586;48.710;9.202;2022-07-29T11:58:05;2.07;;;1.87;;
5135;SDS011;2586;48.710;9.202;2022-07-29T12:00:32;3.10;;;2.37;;
5135;SDS011;2586;48.710;9.202;2022-07-29T12:03:06;2.87;;;2.50;;
5135;SDS011;2586;48.710;9.202;2022-07-29T12:05:43;2.30;;;2.10;;
5135;SDS011;2586;48.710;9.202;2022-07-29T12:08:11;2.90;;;2.40;;
5135;SDS011;2586;48.710;9.202;2022-07-29T12:10:39;4.57;;;2.60;;
5135;SDS011;2586;48.710;9.202;2022-07-29T12:13:05;3.93;;;2.53;;
5135;SDS011;2586;48.710;9.202;2022-07-29T12:15:31;2.60;;;2.40;;
5135;SDS011;2586;48.710;9.202;2022-07-29T12:17:57;8.10;;;2.13;;
5135;SDS011;2586;48.710;9.202;2022-07-29T12:20:27;6.60;;;3.27;;
5135;SDS011;2586;48.710;9.202;2022-07-29T12:22:55;3.47;;;2.90;;
5135;SDS011;2586;48.710;9.202;2022-07-29T12:25:22;4.03;;;2.73;;
5135;SDS011;2586;48.710;9.202;2022-07-29T12:27:58;7.43;;;2.90;;
5135;SDS011;2586;48.710;9.202;2022-07-29T12:30:33;5.20;;;3.00;;
5135;SDS011;2586;48.710;9.202;2022-07-29T12:33:40;5.17;;;3.70;;
5135;SDS011;2586;48.710;9.202;2022-07-29T12:36:00;8.50;;;3.83;;
5135;SDS011;2586;48.710;9.202;2022-07-29T12:38:26;4.53;;;4.07;;
5135;SDS011;2586;48.710;9.202;2022-07-29T12:40:53;8.00;;;3.87;;
5135;SDS011;2586;48.710;9.202;2022-07-29T12:43:20;10.53;;;4.10;;
5135;SDS011;2586;48.710;9.202;2022-07-29T12:45:51;9.80;;;4.47;;
5135;SDS011;2586;48.710;9.202;2022-07-29T12:48:37;7.37;;;4.30;;
5135;SDS011;2586;48.710;9.202;2022-07-29T12:51:05;4.73;;;3.97;;
5135;SDS011;2586;48.710;9.202;2022-07-29T12:53:32;9.63;;;4.83;;
5135;SDS011;2586;48.710;9.202;2022-07-29T12:55:58;9.37;;;4.50;;
5135;SDS011;2586;48.710;9.202;2022-07-29T12:58:28;5.20;;;4.63;;
5135;SDS011;2586;48.710;9.202;2022-07-29T13:06:34;7.63;;;5.13;;
5135;SDS011;2586;48.710;9.202;2022-07-29T13:09:07;6.40;;;5.30;;
5135;SDS011;2586;48.710;9.202;2022-07-29T13:11:35;9.30;;;5.33;;
5135;SDS011;2586;48.710;9.202;2022-07-29T13:14:03;11.00;;;5.20;;
5135;SDS011;2586;48.710;9.202;2022-07-29T13:16:29;10.47;;;6.00;;
5135;SDS011;2586;48.710;9.202;2022-07-29T13:19:13;11.47;;;6.10;;
5135;SDS011;2586;48.710;9.202;2022-07-29T13:21:38;7.67;;;6.40;;
5135;SDS011;2586;48.710;9.202;2022-07-29T13:24:05;5.60;;;5.10;;
5135;SDS011;2586;48.710;9.202;2022-07-29T13:26:31;8.73;;;5.43;;
5135;SDS011;2586;48.710;9.202;2022-07-29T13:28:57;7.47;;;5.40;;
5135;SDS011;2586;48.710;9.202;2022-07-29T13:31:22;8.03;;;5.10;;
5135;SDS011;2586;48.710;9.202;2022-07-29T13:33:48;9.77;;;4.50;;
5135;SDS011;2586;48.710;9.202;2022-07-29T13:36:14;10.63;;;5.80;;
5135;SDS011;2586;48.710;9.202;2022-07-29T13:38:39;12.30;;;6.10;;
5135;SDS011;2586;48.710;9.202;2022-07-29T13:41:05;12.40;;;5.57;;
5135;SDS011;2586;48.710;9.202;2022-07-29T13:43:31;6.67;;;5.30;;
5135;SDS011;2586;48.710;9.202;2022-07-29T13:45:56;8.43;;;6.03;;
5135;SDS011;2586;48.710;9.202;2022-07-29T13:48:22;7.60;;;5.63;;
5135;SDS011;2586;48.710;9.202;2022-07-29T13:50:48;6.73;;;6.07;;
5135;SDS011;2586;48.710;9.202;2022-07-29T13:53:13;9.37;;;5.07;;
5135;SDS011;2586;48.710;9.202;2022-07-29T13:55:39;9.17;;;6.20;;
5135;SDS011;2586;48.710;9.202;2022-07-29T13:58:04;10.13;;;5.50;;
5135;SDS011;2586;48.710;9.202;2022-07-29T14:00:30;14.87;;;6.30;;
5135;SDS011;2586;48.710;9.202;2022-07-29T14:02:56;10.27;;;5.83;;
5135;SDS011;2586;48.710;9.202;2022-07-29T14:05:22;8.00;;;5.47;;
5135;SDS011;2586;48.710;9.202;2022-07-29T14:07:48;8.30;;;5.80;;
5135;SDS011;2586;48.710;9.202;2022-07-29T14:10:13;15.17;;;5.90;;
5135;SDS011;2586;48.710;9.202;2022-07-29T14:12:39;11.50;;;5.53;;
5135;SDS011;2586;48.710;9.202;2022-07-29T14:15:06;8.77;;;5.10;;
5135;SDS011;2586;48.710;9.202;2022-07-29T14:17:33;10.47;;;5.60;;
5135;SDS011;2586;48.710;9.202;2022-07-29T14:19:59;11.63;;;6.43;;
5135;SDS011;2586;48.710;9.202;2022-07-29T14:22:25;9.70;;;6.77;;
5135;SDS011;2586;48.710;9.202;2022-07-29T14:24:50;24.60;;;9.20;;
5135;SDS011;2586;48.710;9.202;2022-07-29T14:27:16;13.73;;;6.87;;
5135;SDS011;2586;48.710;9.202;2022-07-29T14:29:42;16.77;;;7.60;;
5135;SDS011;2586;48.710;9.202;2022-07-29T14:32:08;9.77;;;7.00;;
5135;SDS011;2586;48.710;9.202;2022-07-29T14:34:39;6.40;;;5.57;;
5135;SDS011;2586;48.710;9.202;2022-07-29T14:37:05;9.70;;;6.73;;
5135;SDS011;2586;48.710;9.202;2022-07-29T14:39:31;7.50;;;6.80;;
5135;SDS011;2586;48.710;9.202;2022-07-29T14:41:58;9.70;;;6.80;;
5135;SDS011;2586;48.710;9.202;2022-07-29T14:44:23;14.20;;;6.70;;
5135;SDS011;2586;48.710;9.202;2022-07-29T14:46:53;10.80;;;7.27;;
5135;SDS011;2586;48.710;9.202;2022-07-29T14:49:19;15.13;;;7.70;;
5135;SDS011;2586;48.710;9.202;2022-07-29T14:51:45;8.70;;;7.50;;
5135;SDS011;2586;48.710;9.202;2022-07-29T14:54:10;15.43;;;6.57;;
5135;SDS011;2586;48.710;9.202;2022-07-29T14:56:36;7.03;;;6.17;;
5135;SDS011;2586;48.710;9.202;2022-07-29T14:59:01;6.90;;;6.00;;
5135;SDS011;2586;48.710;9.202;2022-07-29T15:01:27;8.83;;;5.10;;
5135;SDS011;2586;48.710;9.202;2022-07-29T15:03:52;10.80;;;5.40;;
5135;SDS011;2586;48.710;9.202;2022-07-29T15:06:18;8.90;;;5.80;;
5135;SDS011;2586;48.710;9.202;2022-07-29T15:08:44;11.00;;;5.83;;
5135;SDS011;2586;48.710;9.202;2022-07-29T15:11:09;9.90;;;5.30;;
5135;SDS011;2586;48.710;9.202;2022-07-29T15:13:35;8.53;;;5.33;;
5135;SDS011;2586;48.710;9.202;2022-07-29T15:16:01;5.20;;;4.80;;
5135;SDS011;2586;48.710;9.202;2022-07-29T15:18:26;6.70;;;4.47;;
5135;SDS011;2586;48.710;9.202;2022-07-29T15:20:52;12.33;;;5.10;;
5135;SDS011;2586;48.710;9.202;2022-07-29T15:23:17;11.80;;;5.20;;
5135;SDS011;2586;48.710;9.202;2022-07-29T15:25:43;9.73;;;4.43;;
5135;SDS011;2586;48.710;9.202;2022-07-29T15:28:09;6.30;;;4.70;;
5135;SDS011;2586;48.710;9.202;2022-07-29T15:30:34;16.30;;;5.30;;
5135;SDS011;2586;48.710;9.202;2022-07-29T15:33:05;10.97;;;4.73;;
5135;SDS011;2586;48.710;9.202;2022-07-29T15:35:32;9.10;;;4.43;;
5135;SDS011;2586;48.710;9.202;2022-07-29T15:37:58;10.33;;;4.80;;
5135;SDS011;2586;48.710;9.202;2022-07-29T15:40:24;10.57;;;4.83;;
5135;SDS011;2586;48.710;9.202;2022-07-29T15:42:50;6.83;;;4.97;;
5135;SDS011;2586;48.710;9.202;2022-07-29T15:45:15;13.47;;;3.87;;
5135;SDS011;2586;48.710;9.202;2022-07-29T15:47:41;4.47;;;4.07;;
5135;SDS011;2586;48.710;9.202;2022-07-29T15:50:06;6.33;;;4.40;;
5135;SDS011;2586;48.710;9.202;2022-07-29T15:52:36;7.47;;;4.70;;
5135;SDS011;2586;48.710;9.202;2022-07-29T15:55:03;14.30;;;5.33;;
5135;SDS011;2586;48.710;9.202;2022-07-29T15:57:28;8.20;;;5.73;;
5135;SDS011;2586;48.710;9.202;2022-07-29T15:59:54;7.27;;;6.43;;
5135;SDS011;2586;48.710;9.202;2022-07-29T16:02:21;11.27;;;7.90;;
5135;SDS011;2586;48.710;9.202;2022-07-29T16:04:46;7.20;;;6.50;;